createdAt,value
2023-01-09T07:04:59.416Z,-4.33
2023-01-09T07:06:03.041Z,-4.35
2023-01-09T07:07:06.429Z,-4.34
2023-01-09T07:08:09.307Z,-4.21
2023-01-09T07:09:14.243Z,-4.09
2023-01-09T07:10:17.775Z,-4.08
2023-01-09T07:11:21.023Z,-4.03
2023-01-09T07:12:25.403Z,-4.08
2023-01-09T07:13:28.522Z,-4.07
2023-01-09T07:14:31.321Z,-4.08
2023-01-09T07:15:34.801Z,-3.99
2023-01-09T07:16:38.273Z,-4.03
2023-01-09T07:17:41.493Z,-3.92
2023-01-09T07:18:44.770Z,-3.94
2023-01-09T07:19:48.164Z,-3.86
2023-01-09T07:20:50.753Z,-3.80
2023-01-09T07:21:54.010Z,-3.83
2023-01-09T07:24:21.832Z,-4.03
2023-01-09T07:25:26.822Z,-3.96
2023-01-09T07:26:30.425Z,-4.07
2023-01-09T07:27:33.718Z,-4.08
2023-01-09T07:28:37.089Z,-3.98
2023-01-09T07:29:41.444Z,-3.97
2023-01-09T07:30:43.895Z,-3.85
2023-01-09T07:31:47.937Z,-3.83
2023-01-09T07:32:51.652Z,-3.86
2023-01-09T07:33:54.798Z,-3.82
2023-01-09T07:34:59.177Z,-3.76
2023-01-09T07:36:02.866Z,-3.88
2023-01-09T07:37:06.384Z,-3.75
2023-01-09T07:38:08.899Z,-3.68
2023-01-09T07:39:12.467Z,-3.56
2023-01-09T07:40:16.283Z,-3.48
2023-01-09T07:41:21.485Z,-3.50
2023-01-09T07:42:25.832Z,-3.51
2023-01-09T07:43:28.263Z,-3.45
2023-01-09T07:44:32.700Z,-3.46
2023-01-09T07:45:35.728Z,-3.56
2023-01-09T07:46:39.137Z,-3.46
2023-01-09T07:47:44.455Z,-3.49
2023-01-09T07:48:47.525Z,-3.41
2023-01-09T07:49:50.895Z,-3.38
2023-01-09T07:50:59.585Z,-3.38
2023-01-09T07:52:06.217Z,-3.42
2023-01-09T07:53:09.546Z,-3.51
2023-01-09T07:54:15.640Z,-3.44
2023-01-09T07:55:17.994Z,-3.45
2023-01-09T07:56:21.618Z,-3.52
2023-01-09T07:57:25.106Z,-3.43
2023-01-09T07:58:28.183Z,-3.46
2023-01-09T07:59:32.644Z,-3.48
2023-01-09T08:00:35.315Z,-3.61
2023-01-09T08:01:40.163Z,-3.57
2023-01-09T08:02:43.359Z,-3.57
2023-01-09T08:03:46.974Z,-3.55
2023-01-09T08:04:50.367Z,-3.51
2023-01-09T08:05:54.192Z,-3.55
2023-01-09T08:06:57.847Z,-3.51
2023-01-09T08:08:02.451Z,-3.48
2023-01-09T08:09:05.862Z,-3.42
2023-01-09T08:10:11.282Z,-3.45
2023-01-09T08:11:17.002Z,-3.45
2023-01-09T08:12:20.446Z,-3.44
2023-01-09T08:13:22.695Z,-3.49
2023-01-09T08:14:28.013Z,-3.28
2023-01-09T08:15:30.388Z,-3.47
2023-01-09T08:16:34.788Z,-3.40
2023-01-09T08:17:38.178Z,-3.45
2023-01-09T08:18:41.685Z,-3.50
2023-01-09T08:19:44.026Z,-3.59
2023-01-09T08:20:48.797Z,-3.58
2023-01-09T08:21:52.095Z,-3.55
2023-01-09T08:22:55.691Z,-3.49
2023-01-09T08:23:58.959Z,-3.49
2023-01-09T08:25:01.355Z,-3.42
2023-01-09T08:26:05.004Z,-3.44
2023-01-09T08:27:08.567Z,-3.38
2023-01-09T08:28:12.799Z,-3.46
2023-01-09T08:29:16.001Z,-3.37
2023-01-09T08:30:19.909Z,-3.25
2023-01-09T08:31:23.073Z,-3.22
2023-01-09T08:32:28.011Z,-3.10
2023-01-09T08:33:32.311Z,-3.10
2023-01-09T08:34:37.339Z,-3.15
2023-01-09T08:35:41.112Z,-3.22
2023-01-09T08:36:43.345Z,-3.12
2023-01-09T08:37:49.978Z,-3.17
2023-01-09T08:38:54.231Z,-3.20
2023-01-09T08:39:57.631Z,-3.31
2023-01-09T08:41:04.556Z,-3.23
2023-01-09T08:42:27.296Z,-3.25
2023-01-09T08:43:50.972Z,-3.21
2023-01-09T08:45:11.941Z,-3.20
2023-01-09T08:46:38.346Z,-3.29
2023-01-09T08:47:43.059Z,-3.25
2023-01-09T08:48:46.760Z,-3.26
2023-01-09T08:49:49.992Z,-3.16
2023-01-09T08:50:54.938Z,-3.29
2023-01-09T08:51:59.189Z,-3.19
2023-01-09T08:53:02.455Z,-3.17
2023-01-09T08:54:05.642Z,-3.22
2023-01-09T08:55:08.853Z,-3.29
2023-01-09T08:56:12.053Z,-3.25
2023-01-09T08:57:17.408Z,-2.99
2023-01-09T08:58:20.216Z,-2.94
2023-01-09T08:59:23.912Z,-2.97
2023-01-09T09:00:26.447Z,-2.94
2023-01-09T09:01:29.793Z,-3.03
2023-01-09T09:02:36.207Z,-3.01
2023-01-09T09:03:39.705Z,-2.82
2023-01-09T09:04:43.214Z,-2.87
2023-01-09T09:05:46.972Z,-2.70
2023-01-09T09:06:50.978Z,-2.61
2023-01-09T09:07:54.564Z,-2.82
2023-01-09T09:08:59.005Z,-2.72
2023-01-09T09:10:03.712Z,-2.69
2023-01-09T09:11:08.402Z,-2.65
2023-01-09T09:12:10.985Z,-2.65
2023-01-09T09:13:14.303Z,-2.79
2023-01-09T09:14:25.867Z,-2.91
2023-01-09T09:15:29.387Z,-2.77
2023-01-09T09:16:32.302Z,-2.69
2023-01-09T09:17:38.531Z,-2.61
2023-01-09T09:18:41.718Z,-2.62
2023-01-09T09:19:44.952Z,-2.82
2023-01-09T09:20:48.439Z,-2.84
2023-01-09T09:21:50.814Z,-2.73
2023-01-09T09:22:54.178Z,-2.84
2023-01-09T09:23:58.383Z,-2.71
2023-01-09T09:25:01.953Z,-2.77
2023-01-09T09:26:04.804Z,-2.76
2023-01-09T09:27:07.571Z,-2.72
2023-01-09T09:28:10.588Z,-2.68
2023-01-09T09:29:14.360Z,-2.65
2023-01-09T09:30:20.375Z,-2.59
2023-01-09T09:31:25.086Z,-2.59
2023-01-09T09:32:28.323Z,-2.70
2023-01-09T09:33:31.647Z,-2.79
2023-01-09T09:34:37.016Z,-2.79
2023-01-09T09:35:41.243Z,-2.81
2023-01-09T09:36:47.940Z,-2.70
2023-01-09T09:37:59.664Z,-2.54
2023-01-09T09:39:03.895Z,-2.75
2023-01-09T09:40:17.965Z,-2.69
2023-01-09T09:41:18.242Z,-2.64
2023-01-09T09:42:43.330Z,-2.47
2023-01-09T09:44:09.083Z,-2.50
2023-01-09T09:45:15.409Z,-2.57
2023-01-09T09:46:22.597Z,-2.64
2023-01-09T09:47:44.547Z,-2.67
2023-01-09T09:48:56.700Z,-2.56
2023-01-09T09:50:01.706Z,-2.71
2023-01-09T09:51:05.755Z,-2.61
2023-01-09T09:52:11.938Z,-2.76
2023-01-09T09:53:17.329Z,-2.80
2023-01-09T09:54:21.408Z,-2.60
2023-01-09T09:55:29.774Z,-2.57
2023-01-09T09:56:34.048Z,-2.49
2023-01-09T09:57:37.863Z,-2.44
2023-01-09T09:58:41.745Z,-2.29
2023-01-09T09:59:45.541Z,-2.37
2023-01-09T10:00:50.348Z,-2.50
2023-01-09T10:01:55.925Z,-2.32
2023-01-09T10:03:08.067Z,-2.28
2023-01-09T10:04:12.528Z,-2.14
2023-01-09T10:05:16.684Z,-2.15
2023-01-09T10:06:28.152Z,-2.19
2023-01-09T10:07:40.520Z,-2.42
2023-01-09T10:08:56.320Z,-2.62
2023-01-09T10:10:05.584Z,-2.49
2023-01-09T10:11:11.684Z,-2.50
2023-01-09T10:12:32.434Z,-2.57
2023-01-09T10:13:55.568Z,-2.52
2023-01-09T10:15:10.050Z,-2.39
2023-01-09T10:16:21.887Z,-2.38
2023-01-09T10:17:32.926Z,-2.27
2023-01-09T10:18:37.695Z,-2.20
2023-01-09T10:19:57.024Z,-2.31
2023-01-09T10:21:01.832Z,-2.36
2023-01-09T10:22:15.467Z,-2.43
2023-01-09T10:23:34.845Z,-2.42
2023-01-09T10:24:40.819Z,-2.51
2023-01-09T10:25:49.071Z,-2.41
2023-01-09T10:26:56.075Z,-2.40
2023-01-09T10:28:17.710Z,-2.37
2023-01-09T10:29:21.925Z,-2.31
2023-01-09T10:30:40.479Z,-2.25
2023-01-09T10:32:02.471Z,-2.36
2023-01-09T10:33:08.059Z,-2.42
2023-01-09T10:34:18.672Z,-2.37
2023-01-09T10:35:47.074Z,-2.36
2023-01-09T10:36:53.250Z,-2.20
2023-01-09T10:37:59.298Z,-2.38
2023-01-09T10:39:04.154Z,-2.34
2023-01-09T10:40:10.414Z,-2.42
2023-01-09T10:41:21.618Z,-2.33
2023-01-09T10:42:44.526Z,-2.24
2023-01-09T10:43:52.648Z,-2.02
2023-01-09T10:45:12.246Z,-1.90
2023-01-09T10:46:23.385Z,-1.90
2023-01-09T10:47:29.979Z,-1.92
2023-01-09T10:48:35.988Z,-1.87
2023-01-09T10:49:40.021Z,-1.96
2023-01-09T10:50:46.482Z,-1.91
2023-01-09T10:51:51.198Z,-1.80
2023-01-09T10:52:57.117Z,-1.82
2023-01-09T10:54:01.472Z,-1.70
2023-01-09T10:55:07.048Z,-1.63
2023-01-09T10:56:30.490Z,-1.77
2023-01-09T10:57:35.780Z,-1.95
2023-01-09T10:58:40.647Z,-1.88
2023-01-09T10:59:44.255Z,-1.83
2023-01-09T11:00:48.291Z,-1.85
2023-01-09T11:01:53.193Z,-1.96
2023-01-09T11:02:55.493Z,-1.92
2023-01-09T11:04:00.770Z,-1.98
2023-01-09T11:05:05.222Z,-2.16
2023-01-09T11:06:10.924Z,-2.09
2023-01-09T11:07:18.826Z,-1.97
2023-01-09T11:08:40.547Z,-1.96
2023-01-09T11:09:57.791Z,-1.88
2023-01-09T11:11:02.659Z,-1.94
2023-01-09T11:12:07.715Z,-1.90
2023-01-09T11:13:21.780Z,-1.90
2023-01-09T11:14:27.483Z,-1.85
2023-01-09T11:15:31.400Z,-1.85
2023-01-09T11:16:35.203Z,-1.74
2023-01-09T11:17:38.503Z,-1.78
2023-01-09T11:18:44.512Z,-1.81
2023-01-09T11:20:07.270Z,-1.89
2023-01-09T11:21:14.617Z,-1.89
2023-01-09T11:22:18.855Z,-1.83
2023-01-09T11:23:35.145Z,-1.69
2023-01-09T11:24:38.485Z,-1.74
2023-01-09T11:25:43.920Z,-1.77
2023-01-09T11:26:48.227Z,-1.78
2023-01-09T11:28:06.986Z,-2.00
2023-01-09T11:29:15.065Z,-2.03
2023-01-09T11:30:21.865Z,-1.93
2023-01-09T11:31:28.294Z,-1.89
2023-01-09T11:32:32.797Z,-1.95
2023-01-09T11:33:39.349Z,-1.97
2023-01-09T11:34:45.006Z,-1.88
2023-01-09T11:36:00.344Z,-1.80
2023-01-09T11:37:05.527Z,-1.85
2023-01-09T11:38:11.015Z,-1.96
2023-01-09T11:39:22.458Z,-2.02
2023-01-09T11:40:25.958Z,-2.10
2023-01-09T11:41:38.023Z,-2.02
2023-01-09T11:42:53.880Z,-2.05
2023-01-09T11:43:59.183Z,-1.90
2023-01-09T11:45:02.426Z,-1.88
2023-01-09T11:46:10.851Z,-1.76
2023-01-09T11:47:28.453Z,-1.80
2023-01-09T11:48:35.527Z,-1.95
2023-01-09T11:49:38.693Z,-1.93
2023-01-09T11:50:43.761Z,-1.92
2023-01-09T11:51:47.627Z,-2.17
2023-01-09T11:54:09.328Z,-1.83
2023-01-09T11:55:14.602Z,-1.97
2023-01-09T11:56:18.836Z,-2.01
2023-01-09T11:57:23.488Z,-1.96
2023-01-09T11:58:28.560Z,-1.91
2023-01-09T11:59:32.012Z,-1.84
2023-01-09T12:00:36.729Z,-1.68
2023-01-09T12:01:47.431Z,-1.66
2023-01-09T12:02:53.722Z,-1.73
2023-01-09T12:04:10.280Z,-1.87
2023-01-09T12:05:18.751Z,-1.93
2023-01-09T12:06:36.379Z,-2.10
2023-01-09T12:07:53.675Z,-2.04
2023-01-09T12:09:07.489Z,-1.97
2023-01-09T12:10:15.713Z,-1.88
2023-01-09T12:11:26.924Z,-1.75
2023-01-09T12:12:38.164Z,-1.81
2023-01-09T12:13:55.838Z,-1.93
2023-01-09T12:15:12.419Z,-1.97
2023-01-09T12:16:17.986Z,-1.83
2023-01-09T12:17:23.292Z,-1.90
2023-01-09T12:18:29.318Z,-1.76
2023-01-09T12:19:52.562Z,-1.78
2023-01-09T12:20:59.931Z,-1.83
2023-01-09T12:22:05.132Z,-1.85
2023-01-09T12:23:29.707Z,-1.79
2023-01-09T12:24:37.811Z,-1.87
2023-01-09T12:25:45.254Z,-1.81
2023-01-09T12:28:36.066Z,-1.66
2023-01-09T12:30:00.419Z,-1.76
2023-01-09T12:31:21.633Z,-1.95
2023-01-09T12:32:42.661Z,-1.85
2023-01-09T12:33:53.484Z,-1.84
2023-01-09T12:35:05.959Z,-1.97
2023-01-09T12:36:23.432Z,-1.93
2023-01-09T12:37:46.610Z,-1.93
2023-01-09T12:38:54.713Z,-2.07
2023-01-09T12:40:04.694Z,-1.88
2023-01-09T12:41:09.614Z,-1.96
2023-01-09T12:42:20.788Z,-1.84
2023-01-09T12:43:28.044Z,-1.81
2023-01-09T12:44:35.882Z,-1.82
2023-01-09T12:45:41.540Z,-1.84
2023-01-09T12:46:46.194Z,-1.73
2023-01-09T12:47:51.578Z,-1.71
2023-01-09T12:49:13.884Z,-1.73
2023-01-09T12:50:31.095Z,-1.73
2023-01-09T12:51:37.715Z,-1.80
2023-01-09T12:52:45.702Z,-1.79
2023-01-09T12:53:54.028Z,-1.80
2023-01-09T12:55:04.141Z,-1.77
2023-01-09T12:56:11.272Z,-1.67
2023-01-09T12:57:36.383Z,-1.63
2023-01-09T12:58:47.531Z,-1.61
2023-01-09T13:01:05.346Z,-1.76
2023-01-09T13:02:15.962Z,-1.76
2023-01-09T13:03:22.001Z,-1.78
2023-01-09T13:04:27.179Z,-1.56
2023-01-09T13:05:32.455Z,-1.60
2023-01-09T13:06:36.588Z,-1.59
2023-01-09T13:07:42.723Z,-1.44
2023-01-09T13:08:51.963Z,-1.53
2023-01-09T13:09:59.872Z,-1.72
2023-01-09T13:11:19.469Z,-1.62
2023-01-09T13:12:16.049Z,-1.60
2023-01-09T13:13:21.442Z,-1.60
2023-01-09T13:14:25.891Z,-1.58
2023-01-09T13:16:59.325Z,-1.56
2023-01-09T13:18:04.394Z,-1.58
2023-01-09T13:19:14.365Z,-1.67
2023-01-09T13:20:19.756Z,-1.53
2023-01-09T13:21:22.211Z,-1.52
2023-01-09T17:40:51.566Z,-0.45
2023-01-09T17:41:55.134Z,-0.47
2023-01-09T17:42:57.338Z,-0.44
2023-01-09T17:44:01.646Z,-0.42
2023-01-09T17:45:06.572Z,-0.47
2023-01-09T17:46:11.850Z,-0.53
2023-01-09T17:47:16.507Z,-0.55
2023-01-09T17:48:21.669Z,-0.41
2023-01-09T17:49:24.437Z,-0.43
2023-01-09T17:50:31.684Z,-0.40
2023-01-09T17:51:38.656Z,-0.52
2023-01-09T17:52:45.426Z,-0.43
2023-01-09T17:53:48.903Z,-0.42
2023-01-09T17:54:53.885Z,-0.31
2023-01-09T17:55:57.476Z,-0.29
2023-01-09T17:57:01.396Z,-0.27
2023-01-09T17:58:04.275Z,-0.23
2023-01-09T17:59:08.932Z,-0.14
2023-01-09T18:00:26.560Z,-0.20
2023-01-09T18:01:30.807Z,-0.26
2023-01-09T18:02:33.346Z,-0.13
2023-01-09T18:03:37.062Z,-0.19
2023-01-09T18:04:40.556Z,-0.24
2023-01-09T18:05:43.736Z,-0.39
2023-01-09T18:06:49.039Z,-0.26
2023-01-09T18:07:52.532Z,-0.31
2023-01-09T18:08:57.298Z,-0.34
2023-01-09T18:09:59.961Z,-0.36
2023-01-09T18:11:04.787Z,-0.40
2023-01-09T18:12:08.228Z,-0.39
2023-01-09T18:13:12.900Z,-0.31
2023-01-09T18:14:17.493Z,-0.22
2023-01-09T18:15:21.461Z,-0.25
2023-01-09T18:16:26.910Z,-0.27
2023-01-09T18:17:32.266Z,-0.33
2023-01-09T18:18:36.329Z,-0.36
2023-01-09T18:19:40.070Z,-0.24
2023-01-09T18:20:44.102Z,-0.36
2023-01-09T18:21:47.593Z,-0.37
2023-01-09T18:22:50.898Z,-0.34
2023-01-09T18:23:54.508Z,-0.40
2023-01-09T18:24:57.805Z,-0.36
2023-01-09T18:26:01.925Z,-0.29
2023-01-09T18:27:05.232Z,-0.24
2023-01-09T18:28:08.621Z,-0.37
2023-01-09T18:29:13.391Z,-0.30
2023-01-09T18:30:16.789Z,-0.31
2023-01-09T18:31:21.593Z,-0.38
2023-01-09T18:32:26.122Z,-0.40
2023-01-09T18:33:28.757Z,-0.38
2023-01-09T18:34:31.217Z,-0.32
2023-01-09T18:35:35.563Z,-0.32
2023-01-09T18:36:37.943Z,-0.32
2023-01-09T18:37:41.540Z,-0.33
2023-01-09T18:38:44.936Z,-0.31
2023-01-09T18:39:51.502Z,-0.29
2023-01-09T18:40:57.475Z,-0.31
2023-01-09T18:42:01.810Z,-0.39
2023-01-09T18:43:09.788Z,-0.33
2023-01-09T18:44:16.135Z,-0.26
2023-01-09T18:45:21.557Z,-0.22
2023-01-09T18:46:25.727Z,-0.22
2023-01-09T18:47:29.373Z,-0.17
2023-01-09T18:48:33.297Z,-0.18
2023-01-09T18:49:35.967Z,-0.20
2023-01-09T18:50:42.491Z,-0.17
2023-01-09T18:51:48.173Z,-0.16
2023-01-09T18:52:52.438Z,-0.08
2023-01-09T18:53:55.936Z,-0.19
2023-01-09T18:54:59.444Z,-0.16
2023-01-09T18:56:03.472Z,-0.26
2023-01-09T18:57:05.939Z,-0.27
2023-01-09T18:58:09.122Z,-0.28
2023-01-09T18:59:12.737Z,-0.23
2023-01-09T19:00:16.289Z,-0.26
2023-01-09T19:01:19.063Z,-0.25
2023-01-09T19:02:24.044Z,-0.22
2023-01-09T19:03:27.996Z,-0.22
2023-01-09T19:04:32.158Z,-0.25
2023-01-09T19:05:35.643Z,-0.22
2023-01-09T19:06:39.883Z,-0.28
2023-01-09T19:07:43.268Z,-0.28
2023-01-09T19:08:45.852Z,-0.38
2023-01-09T19:09:49.145Z,-0.25
2023-01-09T19:10:53.374Z,-0.35
2023-01-09T19:11:56.673Z,-0.37
2023-01-09T19:13:02.031Z,-0.37
2023-01-09T19:14:05.388Z,-0.32
2023-01-09T19:15:12.983Z,-0.26
2023-01-09T19:16:17.917Z,-0.24
2023-01-09T19:17:23.494Z,-0.25
2023-01-09T19:18:26.787Z,-0.32
2023-01-09T19:19:32.283Z,-0.18
2023-01-09T19:20:36.612Z,-0.10
2023-01-09T19:21:39.169Z,-0.13
2023-01-09T19:22:44.060Z,-0.13
2023-01-09T19:23:48.281Z,-0.15
2023-01-09T19:24:53.035Z,-0.09
2023-01-09T19:25:58.083Z,-0.14
2023-01-09T19:27:01.514Z,-0.13
2023-01-09T19:28:04.175Z,0.02
2023-01-09T19:29:07.301Z,-0.01
2023-01-09T19:30:10.777Z,-0.07
2023-01-09T19:31:14.943Z,-0.11
2023-01-09T19:32:18.561Z,-0.12
2023-01-09T19:33:21.865Z,-0.07
2023-01-09T19:34:25.969Z,-0.13
2023-01-09T19:35:28.404Z,-0.23
2023-01-09T19:36:34.305Z,-0.29
2023-01-09T19:37:36.877Z,-0.33
2023-01-09T19:38:39.952Z,-0.26
2023-01-09T19:39:43.365Z,-0.21
2023-01-09T19:40:46.827Z,-0.24
2023-01-09T19:41:50.496Z,-0.24
2023-01-09T19:42:55.440Z,-0.26
2023-01-09T19:44:02.510Z,-0.25
2023-01-09T19:45:06.806Z,-0.27
2023-01-09T19:46:13.474Z,-0.11
2023-01-09T19:47:16.806Z,-0.13
2023-01-09T19:48:20.299Z,-0.12
2023-01-09T19:49:23.827Z,-0.09
2023-01-09T19:50:28.932Z,-0.10
2023-01-09T19:51:33.967Z,-0.18
2023-01-09T19:52:38.167Z,-0.27
2023-01-09T19:53:41.153Z,-0.22
2023-01-09T19:54:44.361Z,-0.09
2023-01-09T19:55:47.639Z,-0.19
2023-01-09T19:56:52.063Z,-0.19
2023-01-09T19:57:57.363Z,-0.15
2023-01-09T19:59:01.721Z,-0.15
2023-01-09T20:00:06.468Z,-0.18
2023-01-09T20:01:16.557Z,-0.15
2023-01-09T20:03:25.430Z,-0.24
2023-01-09T20:04:31.344Z,-0.24
2023-01-09T20:05:34.118Z,-0.16
2023-01-09T20:06:42.134Z,-0.23
2023-01-09T20:07:45.411Z,-0.19
2023-01-09T20:08:48.714Z,-0.13
2023-01-09T20:09:51.054Z,-0.05
2023-01-09T20:10:54.464Z,-0.06
2023-01-09T20:11:58.180Z,-0.10
2023-01-09T20:13:03.667Z,-0.09
2023-01-09T20:14:12.395Z,-0.13
2023-01-09T20:15:15.896Z,-0.13
2023-01-09T20:16:20.252Z,-0.07
2023-01-09T20:17:22.926Z,-0.10
2023-01-09T20:18:26.624Z,-0.14
2023-01-09T20:19:30.457Z,-0.12
2023-01-09T20:20:34.052Z,-0.07
2023-01-09T20:21:41.893Z,-0.07
2023-01-09T20:22:45.555Z,-0.06
2023-01-09T20:23:48.327Z,-0.14
2023-01-09T20:24:51.624Z,-0.05
2023-01-09T20:25:56.937Z,-0.05
2023-01-09T20:27:01.248Z,-0.16
2023-01-09T20:28:07.845Z,-0.10
2023-01-09T20:29:11.177Z,-0.14
2023-01-09T20:30:14.248Z,-0.03
2023-01-09T20:31:19.404Z,0.04
2023-01-09T20:32:21.902Z,0.04
2023-01-09T20:33:25.250Z,0.08
2023-01-09T20:34:29.851Z,-0.16
2023-01-09T20:35:33.364Z,-0.14
2023-01-09T20:36:36.754Z,-0.03
2023-01-09T20:37:40.500Z,-0.12
2023-01-09T20:38:44.302Z,-0.21
2023-01-09T20:39:47.680Z,-0.24
2023-01-09T20:40:50.256Z,-0.16
2023-01-09T20:41:55.472Z,-0.14
2023-01-09T20:42:59.496Z,-0.31
2023-01-09T20:44:04.426Z,-0.21
2023-01-09T20:45:08.458Z,-0.26
2023-01-09T20:46:11.985Z,-0.24
2023-01-09T20:47:14.939Z,-0.34
2023-01-09T20:48:17.360Z,-0.32
2023-01-09T20:49:21.113Z,-0.30
2023-01-09T20:50:24.513Z,-0.33
2023-01-09T20:51:28.025Z,-0.30
2023-01-09T20:52:31.629Z,-0.23
2023-01-09T20:53:37.133Z,-0.31
2023-01-09T20:54:43.144Z,-0.24
2023-01-09T20:55:47.352Z,-0.34
2023-01-09T20:56:50.986Z,-0.37
2023-01-09T20:57:57.423Z,-0.36
2023-01-09T20:59:01.348Z,-0.45
2023-01-09T21:00:05.457Z,-0.42
2023-01-09T21:01:10.265Z,-0.47
2023-01-09T21:02:15.114Z,-0.46
2023-01-09T21:03:17.560Z,-0.43
2023-01-09T21:04:20.152Z,-0.40
2023-01-09T21:05:23.611Z,-0.44
2023-01-09T21:06:28.311Z,-0.43
2023-01-09T21:07:31.654Z,-0.44
2023-01-09T21:08:35.300Z,-0.38
2023-01-09T21:09:38.497Z,-0.52
2023-01-09T21:10:41.753Z,-0.57
2023-01-09T21:11:49.976Z,-0.59
2023-01-09T21:12:53.372Z,-0.59
2023-01-09T21:14:02.593Z,-0.59
2023-01-09T21:15:11.452Z,-0.65
2023-01-09T21:16:16.330Z,-0.69
2023-01-09T21:17:19.612Z,-0.65
2023-01-09T21:18:22.581Z,-0.59
2023-01-09T21:19:25.992Z,-0.59
2023-01-09T21:20:32.305Z,-0.73
2023-01-09T21:21:36.584Z,-0.75
2023-01-09T21:22:42.776Z,-0.74
2023-01-09T21:23:48.077Z,-0.71
2023-01-09T21:24:50.933Z,-0.78
2023-01-09T21:25:57.352Z,-0.85
2023-01-09T21:27:00.873Z,-0.86
2023-01-09T21:28:03.850Z,-0.79
2023-01-09T21:29:10.036Z,-0.81
2023-01-09T21:30:15.007Z,-0.82
2023-01-09T21:31:20.848Z,-0.80
2023-01-09T21:32:24.344Z,-0.84
2023-01-09T21:33:27.221Z,-0.90
2023-01-09T21:34:30.440Z,-0.80
2023-01-09T21:35:35.178Z,-0.79
2023-01-09T21:36:39.392Z,-0.80
2023-01-09T21:37:45.515Z,-0.69
2023-01-09T21:38:49.856Z,-0.62
2023-01-09T21:39:53.012Z,-0.67
2023-01-09T21:40:56.093Z,-0.73
2023-01-09T21:42:17.396Z,-0.72
2023-01-09T21:43:48.176Z,-0.72
2023-01-09T21:45:10.995Z,-0.74
2023-01-09T21:46:33.511Z,-0.66
2023-01-09T21:47:37.020Z,-0.71
2023-01-09T21:48:40.183Z,-0.61
2023-01-09T21:49:43.692Z,-0.68
2023-01-09T21:50:47.123Z,-0.83
2023-01-09T21:51:50.222Z,-0.81
2023-01-09T21:52:52.550Z,-0.76
2023-01-09T21:53:56.902Z,-0.66
2023-01-09T21:55:00.965Z,-0.69
2023-01-09T21:56:04.324Z,-0.73
2023-01-09T21:57:08.047Z,-0.71
2023-01-09T21:58:11.444Z,-0.68
2023-01-09T21:59:15.392Z,-0.61
2023-01-09T22:00:19.394Z,-0.74
2023-01-09T22:01:21.787Z,-0.79
2023-01-09T22:02:25.255Z,-0.79
2023-01-09T22:03:28.231Z,-0.76
2023-01-09T22:04:30.721Z,-0.80
2023-01-09T22:05:35.867Z,-0.84
2023-01-09T22:06:39.172Z,-0.83
2023-01-09T22:07:42.783Z,-0.86
2023-01-09T22:08:45.960Z,-0.82
2023-01-09T22:09:49.267Z,-0.84
2023-01-09T22:10:56.347Z,-0.83
